Brightwood, North Carolina
Current Conditions -  °F | °C
As of 7:54 AM on Saturday 01 Nov 2014 (Local Time) from KBUY Reporting Station
Moderate Rain Moderate Rain  
Wind Chill: 37°   Ceiling: 3000
Heat Index: 43°   Visibility: 5mi
Dew Point: 40°   Wind: 12mph
Humidity: 89%   Direction: 30°NNE
Pressure: 29.77"   Gusts: NA
Location:  36.2136°N, 79.6775°W
Report Text: KBUY 011154Z AUTO 03010KT 5SM RA BR FEW015 OVC030 06/04 A2977 RMK AO2 RAB09 SLP080 P0000 6//// 7//// T00610044 10083 20061 53016 $
Loading
Personal Weather Stations






























Interactive Weather Map
Tropical Storm Tracking
New forecast layout! Learn more

10-Day Weather Forecast

Advertisements
Track Severe Weather on mobile